Time;durP1;ratioP1;P1;durP2;ratioP2;P2;SDS_P1;SDS_P2;PMS_P1;PMS_P2;Temp;Humidity;BMP_temperature;BMP_pressure;BME280_temperature;BME280_humidity;BME280_pressure;Samples;Min_cycle;Max_cycle;Signal;HPM_P1;HPM_P2
2021/07/03 00:02:05;;;;;;;8.48;5.65;;;;;;;21.97;67.00;99367.91;5040804;28;20030;-77
2021/07/03 00:04:30;;;;;;;10.23;6.03;;;;;;;22.15;67.54;99401.91;5036792;28;20034;-78
2021/07/03 00:06:56;;;;;;;8.35;5.97;;;;;;;22.09;67.87;99389.41;5035156;28;20042;-78
2021/07/03 00:09:21;;;;;;;10.30;6.10;;;;;;;22.22;67.74;99397.16;5045488;28;20045;-78
2021/07/03 00:11:47;;;;;;;11.05;6.05;;;;;;;22.05;68.32;99379.38;5041887;28;20250;-78
2021/07/03 00:14:14;;;;;;;16.67;6.63;;;;;;;22.29;67.80;99395.13;5075572;28;20040;-77
2021/07/03 00:16:40;;;;;;;8.52;6.20;;;;;;;22.31;67.64;99389.47;5040984;28;20037;-78
2021/07/03 00:19:05;;;;;;;11.07;5.70;;;;;;;22.20;67.74;99391.22;5034272;28;20234;-78
2021/07/03 00:21:31;;;;;;;12.30;6.63;;;;;;;22.13;68.28;99395.94;5029763;28;20024;-78
2021/07/03 00:23:58;;;;;;;8.32;6.57;;;;;;;22.10;67.85;99385.66;5045830;28;20041;-77
2021/07/03 00:26:24;;;;;;;12.20;6.38;;;;;;;21.91;67.94;99381.53;5087052;28;20067;-78
2021/07/03 00:28:49;;;;;;;8.43;5.95;;;;;;;21.82;68.57;99385.66;5031508;28;20029;-75
2021/07/03 00:31:15;;;;;;;7.80;5.68;;;;;;;21.83;68.83;99380.03;5033070;28;20423;-75
2021/07/03 00:33:40;;;;;;;12.18;6.72;;;;;;;21.70;69.30;99374.97;5036124;28;20036;-75
2021/07/03 00:36:06;;;;;;;11.23;5.85;;;;;;;21.73;69.22;99373.66;5029738;28;20029;-75
2021/07/03 00:38:31;;;;;;;13.15;5.88;;;;;;;21.73;69.42;99374.47;5037752;28;20204;-78
2021/07/03 00:40:56;;;;;;;10.40;5.47;;;;;;;21.92;68.95;99375.09;5044806;28;20025;-78
2021/07/03 00:43:22;;;;;;;8.48;5.53;;;;;;;21.93;68.67;99374.03;5039626;28;20041;-78
2021/07/03 00:45:48;;;;;;;13.02;5.97;;;;;;;21.66;68.75;99350.38;5037344;28;20030;-78
2021/07/03 00:48:13;;;;;;;6.82;5.43;;;;;;;21.78;69.03;99369.16;5039385;28;20102;-78
2021/07/03 00:50:38;;;;;;;11.65;5.72;;;;;;;21.95;68.43;99377.28;5042118;28;20037;-78
2021/07/03 00:53:04;;;;;;;9.23;5.93;;;;;;;22.12;67.59;99388.09;5039999;28;20356;-78
2021/07/03 00:55:31;;;;;;;12.20;6.53;;;;;;;21.87;68.75;99388.47;5032111;28;20375;-78
2021/07/03 00:57:57;;;;;;;11.07;5.78;;;;;;;21.96;68.83;99390.53;5035536;28;20033;-78
2021/07/03 01:00:23;;;;;;;8.50;5.32;;;;;;;22.22;67.41;99383.69;5041890;28;20310;-78
2021/07/03 01:02:48;;;;;;;8.45;6.03;;;;;;;22.19;67.76;99388.75;5032743;28;20042;-77
2021/07/03 01:05:15;;;;;;;9.30;5.88;;;;;;;22.07;68.10;99378.06;5035197;28;20411;-78
2021/07/03 01:07:41;;;;;;;8.90;6.07;;;;;;;22.15;68.20;99383.03;5043109;28;20029;-78
2021/07/03 01:10:19;;;;;;;12.52;6.22;;;;;;;22.17;67.86;99386.31;5043098;28;20072;-78
2021/07/03 01:12:44;;;;;;;8.85;5.90;;;;;;;22.16;67.81;99383.84;5031362;28;20087;-77
2021/07/03 01:15:10;;;;;;;11.88;5.75;;;;;;;22.11;68.35;99379.19;5036714;28;20037;-78
2021/07/03 01:17:36;;;;;;;7.85;5.47;;;;;;;22.04;68.02;99377.72;5026196;28;20037;-75
2021/07/03 01:20:03;;;;;;;8.38;5.60;;;;;;;21.98;67.82;99374.94;5027934;28;20025;-75
2021/07/03 01:22:28;;;;;;;6.97;5.57;;;;;;;21.93;67.45;99382.94;5038902;28;20033;-75
2021/07/03 01:24:53;;;;;;;9.27;5.10;;;;;;;21.78;67.21;99371.88;5039078;28;20029;-75
2021/07/03 01:27:19;;;;;;;9.10;5.65;;;;;;;21.62;67.26;99380.75;5032049;28;20206;-78
2021/07/03 01:29:44;;;;;;;9.68;5.45;;;;;;;21.43;67.48;99372.06;5040565;28;20034;-78
2021/07/03 01:32:10;;;;;;;8.52;4.97;;;;;;;21.45;67.29;99367.25;5033412;28;20029;-78
2021/07/03 01:34:36;;;;;;;14.00;5.18;;;;;;;21.51;67.30;99389.72;5035363;28;20030;-77
2021/07/03 01:37:03;;;;;;;8.60;5.05;;;;;;;21.31;67.36;99388.28;5039986;28;20040;-78
2021/07/03 01:39:28;;;;;;;6.78;4.32;;;;;;;21.29;67.24;99389.56;5033535;28;20052;-77
2021/07/03 01:41:54;;;;;;;7.03;4.88;;;;;;;21.22;67.33;99381.63;5035374;28;20026;-78
2021/07/03 01:44:25;;;;;;;11.60;4.50;;;;;;;21.19;67.71;99382.09;5040148;28;20283;-78
2021/07/03 01:46:57;;;;;;;8.63;4.60;;;;;;;21.32;66.74;99387.22;5037928;28;20041;-78
2021/07/03 01:49:26;;;;;;;5.28;4.50;;;;;;;21.13;66.93;99377.66;5034028;28;20029;-78
2021/07/03 01:51:52;;;;;;;5.50;4.75;;;;;;;21.21;66.59;99387.22;5039665;28;20044;-78
2021/07/03 01:54:18;;;;;;;5.55;4.05;;;;;;;21.17;67.26;99400.34;5031234;28;20119;-78
2021/07/03 01:56:45;;;;;;;6.60;4.97;;;;;;;21.29;67.00;99403.03;5030006;28;20319;-78
2021/07/03 01:59:12;;;;;;;7.53;5.03;;;;;;;21.42;66.55;99405.44;5037340;28;20047;-78
2021/07/03 02:01:37;;;;;;;6.00;4.78;;;;;;;21.52;65.93;99402.94;5034832;28;20388;-78
2021/07/03 02:04:04;;;;;;;7.40;4.88;;;;;;;21.51;66.41;99408.56;5038015;28;20045;-75
2021/07/03 02:06:29;;;;;;;11.13;5.00;;;;;;;21.45;66.64;99402.25;5030086;28;20036;-75
2021/07/03 02:08:55;;;;;;;5.55;4.15;;;;;;;21.54;66.69;99413.47;5069812;28;20334;-75
2021/07/03 02:11:20;;;;;;;8.65;4.45;;;;;;;21.65;65.93;99407.22;5029438;28;20029;-75
2021/07/03 02:13:46;;;;;;;7.20;4.65;;;;;;;21.65;65.74;99416.09;5036667;28;20037;-75
2021/07/03 02:16:11;;;;;;;5.45;4.30;;;;;;;21.48;65.82;99417.13;5031774;28;20029;-78
2021/07/03 02:18:37;;;;;;;6.50;3.92;;;;;;;21.32;65.52;99414.13;5036330;28;20041;-78
2021/07/03 02:21:02;;;;;;;5.47;3.60;;;;;;;21.24;65.32;99413.72;5036282;28;20075;-78
2021/07/03 02:23:28;;;;;;;6.07;3.47;;;;;;;21.19;65.36;99413.56;5064088;28;20254;-78
2021/07/03 02:25:53;;;;;;;7.28;3.80;;;;;;;21.14;65.41;99413.47;5029954;28;20017;-78
2021/07/03 02:28:19;;;;;;;4.75;3.70;;;;;;;20.97;65.62;99410.72;5031203;28;20339;-78
2021/07/03 02:30:44;;;;;;;9.10;3.65;;;;;;;21.09;65.08;99397.22;5029637;28;20041;-78
2021/07/03 02:33:12;;;;;;;9.18;3.53;;;;;;;21.01;65.22;99407.31;5035650;28;20038;-78
2021/07/03 02:35:38;;;;;;;5.38;4.00;;;;;;;20.88;65.37;99415.63;5032065;28;20029;-78
2021/07/03 02:38:04;;;;;;;11.85;3.80;;;;;;;21.15;64.27;99415.09;5035879;28;20030;-78
2021/07/03 02:40:29;;;;;;;4.10;3.30;;;;;;;21.18;63.89;99415.44;5037405;28;20078;-77
2021/07/03 02:42:55;;;;;;;3.55;3.22;;;;;;;21.10;63.93;99409.63;5036025;28;20037;-78
2021/07/03 02:45:21;;;;;;;3.67;3.33;;;;;;;21.14;63.05;99418.84;5034072;28;20040;-77
2021/07/03 02:47:46;;;;;;;5.25;3.35;;;;;;;21.18;63.05;99409.25;5031214;28;20247;-77
2021/07/03 02:50:15;;;;;;;7.93;3.13;;;;;;;21.24;62.83;99411.00;5030376;28;20021;-77
2021/07/03 02:52:41;;;;;;;3.85;3.47;;;;;;;21.11;62.64;99419.34;5033008;28;20223;-75
2021/07/03 02:55:08;;;;;;;4.93;3.28;;;;;;;21.22;61.87;99413.94;5038284;28;20037;-75
2021/07/03 02:57:34;;;;;;;3.25;2.95;;;;;;;21.28;62.33;99422.94;5033578;28;20337;-75
2021/07/03 02:59:59;;;;;;;7.30;3.20;;;;;;;21.26;61.90;99419.66;5030422;28;20041;-75
2021/07/03 03:02:25;;;;;;;9.93;3.65;;;;;;;21.23;61.87;99420.97;5035828;28;20363;-76
2021/07/03 03:04:50;;;;;;;6.90;3.15;;;;;;;21.27;62.09;99418.63;5028623;28;20053;-78
2021/07/03 03:07:17;;;;;;;4.40;3.35;;;;;;;21.36;61.80;99427.94;5031105;28;20076;-78
2021/07/03 03:09:42;;;;;;;5.80;3.67;;;;;;;21.24;62.13;99417.22;5031625;28;20041;-78
2021/07/03 03:12:08;;;;;;;5.22;3.47;;;;;;;21.26;62.26;99417.78;5040179;28;20041;-77
2021/07/03 03:14:33;;;;;;;3.88;3.20;;;;;;;21.23;62.00;99420.97;5030942;28;20032;-78
2021/07/03 03:16:59;;;;;;;6.38;3.15;;;;;;;21.32;61.52;99416.84;5033303;28;20213;-78
2021/07/03 03:19:24;;;;;;;10.82;3.40;;;;;;;21.19;62.09;99421.66;5035901;28;20048;-78
2021/07/03 03:21:50;;;;;;;5.45;3.05;;;;;;;21.17;61.70;99423.75;5027589;28;20044;-78
2021/07/03 03:24:16;;;;;;;10.07;3.45;;;;;;;20.95;62.30;99410.94;5030223;28;20028;-77
2021/07/03 03:26:42;;;;;;;4.60;2.95;;;;;;;20.86;62.75;99419.63;5039733;28;20341;-77
2021/07/03 03:29:07;;;;;;;2.67;2.47;;;;;;;20.91;62.75;99441.25;5027937;28;20041;-77
2021/07/03 03:31:32;;;;;;;3.33;3.03;;;;;;;20.86;62.46;99427.69;5038588;28;20045;-78
2021/07/03 03:33:58;;;;;;;3.88;2.83;;;;;;;20.94;62.33;99428.16;5035321;28;20032;-78
2021/07/03 03:36:23;;;;;;;6.95;3.00;;;;;;;21.08;62.31;99434.09;5029103;28;20037;-78
2021/07/03 03:38:49;;;;;;;5.43;2.65;;;;;;;21.03;62.63;99442.88;5034988;28;20374;-78
2021/07/03 03:41:15;;;;;;;10.20;3.47;;;;;;;21.10;62.57;99437.34;5034715;28;20120;-75
2021/07/03 03:43:41;;;;;;;3.63;3.10;;;;;;;21.13;62.41;99449.53;5033357;28;20046;-75
2021/07/03 03:46:07;;;;;;;2.83;2.58;;;;;;;21.04;62.50;99431.06;5037511;28;20025;-75
2021/07/03 03:48:32;;;;;;;3.38;2.90;;;;;;;21.08;62.83;99449.41;5040529;28;20029;-75
2021/07/03 03:50:58;;;;;;;7.18;3.20;;;;;;;20.98;63.32;99437.38;5031015;28;20044;-78
2021/07/03 03:53:24;;;;;;;5.53;3.08;;;;;;;21.08;62.94;99452.13;5037061;28;20033;-77
2021/07/03 03:55:50;;;;;;;3.70;3.03;;;;;;;21.04;63.21;99447.19;5038998;28;20226;-77
2021/07/03 03:58:15;;;;;;;5.13;2.72;;;;;;;21.31;62.38;99446.69;5039738;28;20029;-78
2021/07/03 04:00:41;;;;;;;4.85;2.70;;;;;;;21.54;62.09;99456.56;5038032;28;20338;-77
2021/07/03 04:03:06;;;;;;;3.67;2.53;;;;;;;21.55;61.77;99442.03;5035227;28;20033;-78
2021/07/03 04:05:32;;;;;;;2.78;2.58;;;;;;;21.43;61.67;99443.97;5030653;28;20041;-78
2021/07/03 04:07:57;;;;;;;4.00;2.72;;;;;;;21.34;62.29;99422.81;5039834;28;20020;-78
2021/07/03 04:10:23;;;;;;;4.35;2.55;;;;;;;21.43;61.73;99450.16;5034533;28;20060;-78
2021/07/03 04:12:49;;;;;;;4.97;2.70;;;;;;;21.35;61.56;99448.69;5036011;28;20065;-78
2021/07/03 04:15:14;;;;;;;4.05;2.70;;;;;;;21.44;61.75;99443.72;5039124;28;20373;-78
2021/07/03 04:17:40;;;;;;;3.25;2.70;;;;;;;21.45;61.78;99456.13;5040784;28;20333;-78
2021/07/03 04:20:07;;;;;;;3.30;2.72;;;;;;;21.75;61.18;99460.47;5035811;28;20095;-78
2021/07/03 04:22:34;;;;;;;4.03;2.70;;;;;;;21.73;61.03;99465.28;5038230;28;20111;-78
2021/07/03 04:25:00;;;;;;;3.35;2.58;;;;;;;22.05;60.57;99458.38;5036735;28;20055;-78
2021/07/03 04:27:25;;;;;;;2.83;2.60;;;;;;;22.20;60.00;99452.41;5042808;28;20021;-75
2021/07/03 04:29:51;;;;;;;4.30;2.20;;;;;;;22.43;58.94;99462.22;5032426;28;20041;-75
2021/07/03 04:32:17;;;;;;;6.10;2.22;;;;;;;22.62;58.36;99450.91;5037126;28;20042;-75
2021/07/03 04:34:42;;;;;;;4.88;2.35;;;;;;;22.78;57.62;99454.66;5039400;28;20031;-75
2021/07/03 04:37:08;;;;;;;3.92;2.85;;;;;;;22.86;57.09;99454.25;5071770;28;20080;-75
2021/07/03 04:39:33;;;;;;;4.05;2.10;;;;;;;22.86;57.27;99458.84;5038646;28;20025;-78
2021/07/03 04:41:59;;;;;;;7.40;2.53;;;;;;;23.05;56.91;99465.63;5039833;28;20056;-78
2021/07/03 04:44:24;;;;;;;3.28;2.38;;;;;;;23.18;56.35;99461.72;5042818;28;20029;-78
2021/07/03 04:46:50;;;;;;;4.40;1.90;;;;;;;23.23;55.89;99461.78;5035518;28;20053;-78
2021/07/03 04:49:15;;;;;;;7.43;2.83;;;;;;;23.50;55.58;99468.06;5036735;28;20036;-78
2021/07/03 04:51:41;;;;;;;5.25;2.42;;;;;;;23.59;54.74;99457.63;5033197;28;20262;-78
2021/07/03 04:54:07;;;;;;;3.83;2.13;;;;;;;23.85;53.85;99462.25;5038236;28;20031;-78
2021/07/03 04:56:33;;;;;;;3.97;1.90;;;;;;;24.14;52.99;99462.81;5038288;28;20272;-78
2021/07/03 04:58:58;;;;;;;8.40;2.05;;;;;;;24.28;52.31;99457.00;5035527;28;20321;-78
2021/07/03 05:01:24;;;;;;;2.47;1.70;;;;;;;24.46;51.61;99467.41;5037042;28;20335;-78
2021/07/03 05:03:50;;;;;;;3.80;1.50;;;;;;;24.70;51.24;99460.53;5041544;28;20050;-78
2021/07/03 05:06:16;;;;;;;3.75;1.60;;;;;;;24.99;50.79;99450.22;5042695;28;20096;-78
2021/07/03 05:08:42;;;;;;;3.55;1.67;;;;;;;25.12;48.63;99448.91;5030706;28;20048;-75
2021/07/03 05:11:08;;;;;;;4.43;1.65;;;;;;;25.21;48.10;99441.91;5039750;28;20029;-75
2021/07/03 05:13:34;;;;;;;4.82;1.45;;;;;;;25.45;47.92;99439.53;5032155;28;20048;-75
2021/07/03 05:16:00;;;;;;;3.90;1.70;;;;;;;25.57;47.63;99439.31;5069905;28;20033;-75
2021/07/03 05:18:25;;;;;;;2.30;1.40;;;;;;;25.99;46.15;99448.09;5068256;28;20042;-78
2021/07/03 05:20:51;;;;;;;4.63;1.55;;;;;;;26.54;44.96;99443.78;5033229;28;20079;-78
2021/07/03 05:23:17;;;;;;;3.10;1.33;;;;;;;26.72;44.14;99447.81;5030194;28;20026;-78
2021/07/03 05:25:44;;;;;;;4.15;1.38;;;;;;;26.78;43.79;99437.75;5031089;28;20026;-78
2021/07/03 05:28:11;;;;;;;2.67;1.00;;;;;;;27.04;43.46;99448.31;5042931;28;20044;-77
2021/07/03 05:30:36;;;;;;;5.53;1.60;;;;;;;27.18;42.71;99429.53;5037106;28;20052;-78
2021/07/03 05:33:02;;;;;;;7.20;1.20;;;;;;;27.09;42.46;99431.19;5041284;28;20212;-78
2021/07/03 05:35:28;;;;;;;4.88;1.83;;;;;;;27.15;42.75;99437.41;5039914;28;20575;-78
2021/07/03 05:37:53;;;;;;;2.75;1.75;;;;;;;27.06;41.71;99436.38;5043240;28;20036;-77
2021/07/03 05:40:19;;;;;;;2.40;1.17;;;;;;;26.71;42.25;99438.84;5029644;28;20041;-77
2021/07/03 05:42:45;;;;;;;4.20;1.55;;;;;;;26.66;42.86;99444.31;5066912;28;20057;-77
2021/07/03 05:45:14;;;;;;;3.03;1.13;;;;;;;26.73;42.53;99444.00;5033629;28;20037;-77
2021/07/03 05:47:39;;;;;;;4.10;1.42;;;;;;;26.61;41.94;99432.63;5029977;28;20025;-74
2021/07/03 05:50:05;;;;;;;17.88;1.83;;;;;;;27.08;41.27;99432.28;5049239;28;20040;-75
2021/07/03 05:52:32;;;;;;;4.97;1.38;;;;;;;27.54;40.74;99429.34;5051321;28;20266;-75
2021/07/03 05:54:57;;;;;;;2.65;1.08;;;;;;;27.88;39.75;99426.69;5047372;28;20105;-75
2021/07/03 05:57:26;;;;;;;2.58;1.35;;;;;;;27.78;39.49;99432.22;5044426;28;20025;-75
2021/07/03 05:59:51;;;;;;;1.50;1.20;;;;;;;27.84;39.31;99436.53;5042766;28;20068;-77
2021/07/03 06:02:17;;;;;;;4.35;1.50;;;;;;;27.78;39.91;99438.47;5043196;28;20025;-77
2021/07/03 06:04:42;;;;;;;5.60;1.30;;;;;;;27.82;40.17;99422.38;5041352;28;20046;-77
2021/07/03 06:07:08;;;;;;;7.45;1.67;;;;;;;27.92;39.69;99428.56;5051449;28;20075;-77
2021/07/03 06:09:33;;;;;;;2.75;1.52;;;;;;;28.19;39.44;99433.56;5043202;28;20075;-77
2021/07/03 06:11:58;;;;;;;6.50;1.55;;;;;;;28.29;39.06;99419.88;5042530;28;20041;-77
2021/07/03 06:14:24;;;;;;;3.33;1.20;;;;;;;28.40;38.35;99428.78;5041742;28;20045;-78
2021/07/03 06:16:49;;;;;;;3.33;1.30;;;;;;;28.47;37.85;99423.81;5041453;28;20022;-77
2021/07/03 06:19:19;;;;;;;5.80;1.42;;;;;;;28.78;37.55;99426.22;5042300;28;20204;-77
2021/07/03 06:21:45;;;;;;;4.30;1.20;;;;;;;28.60;37.02;99419.59;5042581;28;20056;-77
2021/07/03 06:24:12;;;;;;;5.47;1.20;;;;;;;28.78;36.72;99420.75;5047626;28;20147;-78
2021/07/03 06:26:38;;;;;;;4.07;1.77;;;;;;;28.79;36.55;99425.09;5042317;28;20172;-78
2021/07/03 06:29:03;;;;;;;2.60;1.20;;;;;;;28.78;36.09;99426.22;5041908;28;20037;-75
2021/07/03 06:31:29;;;;;;;2.85;1.42;;;;;;;29.37;35.70;99423.09;5042463;28;20208;-75
2021/07/03 06:33:55;;;;;;;8.85;1.70;;;;;;;28.32;36.08;99409.53;5042147;28;20037;-75
2021/07/03 06:36:21;;;;;;;3.65;1.50;;;;;;;28.34;36.63;99410.84;5042755;28;20043;-75
2021/07/03 06:38:46;;;;;;;3.40;1.20;;;;;;;29.14;36.28;99419.28;5037492;28;20234;-77
2021/07/03 06:41:11;;;;;;;4.10;1.33;;;;;;;28.88;35.45;99415.22;5025528;28;20034;-77
2021/07/03 06:43:37;;;;;;;8.00;1.55;;;;;;;28.70;35.66;99415.94;5029268;28;20033;-77
2021/07/03 06:46:03;;;;;;;4.25;1.50;;;;;;;28.76;35.12;99398.44;5037425;28;20060;-77
2021/07/03 06:48:28;;;;;;;4.43;1.58;;;;;;;29.13;35.38;99414.94;5030289;28;20044;-78
2021/07/03 06:50:54;;;;;;;4.07;1.60;;;;;;;29.37;34.48;99411.34;5030636;28;20041;-77
2021/07/03 06:53:20;;;;;;;5.32;1.30;;;;;;;29.46;34.51;99410.44;5036812;28;20029;-78
2021/07/03 06:55:45;;;;;;;4.25;1.60;;;;;;;29.54;33.99;99408.97;5035311;28;20072;-77
2021/07/03 06:58:10;;;;;;;5.47;1.55;;;;;;;29.78;34.10;99406.16;5038429;28;20027;-77
2021/07/03 07:00:36;;;;;;;3.20;1.52;;;;;;;30.38;33.87;99407.09;5034932;28;20049;-77
2021/07/03 07:03:01;;;;;;;3.50;1.23;;;;;;;30.73;32.58;99397.47;5042110;28;20083;-77
2021/07/03 07:05:29;;;;;;;5.63;1.30;;;;;;;30.74;32.31;99409.19;5039075;28;20046;-78
2021/07/03 07:07:54;;;;;;;3.42;1.30;;;;;;;30.86;32.42;99404.03;5033622;28;20307;-75
2021/07/03 07:10:20;;;;;;;3.20;1.40;;;;;;;30.79;32.74;99404.44;5036851;28;20117;-75
2021/07/03 07:12:45;;;;;;;2.35;1.60;;;;;;;30.67;32.51;99390.47;5040487;28;20211;-75
2021/07/03 07:15:11;;;;;;;5.63;1.38;;;;;;;30.97;31.74;99402.72;5032543;28;20084;-75
2021/07/03 07:17:36;;;;;;;2.72;1.48;;;;;;;30.83;30.54;99399.19;5029801;28;20096;-78
2021/07/03 07:20:03;;;;;;;5.43;1.30;;;;;;;30.44;31.04;99402.34;5038434;28;20216;-77
2021/07/03 07:22:29;;;;;;;5.03;1.38;;;;;;;30.75;30.81;99406.16;5033493;28;20022;-77
2021/07/03 07:24:54;;;;;;;3.63;1.67;;;;;;;30.11;31.24;99404.28;5039280;28;20045;-77
2021/07/03 07:27:20;;;;;;;4.13;1.38;;;;;;;30.21;31.88;99404.13;5040439;28;20022;-77
2021/07/03 07:29:45;;;;;;;3.55;1.35;;;;;;;30.50;31.13;99410.16;5038440;28;20335;-77
2021/07/03 07:32:10;;;;;;;5.57;1.48;;;;;;;30.88;31.60;99404.53;5042611;28;20025;-77
2021/07/03 07:34:36;;;;;;;4.13;1.77;;;;;;;30.81;31.72;99396.75;5043841;28;20021;-77
2021/07/03 07:37:01;;;;;;;4.63;1.30;;;;;;;30.52;30.31;99407.13;5028975;28;20049;-77
2021/07/03 07:39:27;;;;;;;5.65;1.48;;;;;;;30.02;32.15;99371.38;5038990;28;20033;-77
2021/07/03 07:41:52;;;;;;;3.22;1.38;;;;;;;30.14;31.38;99393.56;5040170;28;20044;-75
2021/07/03 07:44:18;;;;;;;3.17;1.40;;;;;;;30.42;29.69;99401.84;5031768;28;20036;-75
2021/07/03 07:46:43;;;;;;;4.50;1.65;;;;;;;30.36;30.52;99387.47;5045822;28;20047;-75
2021/07/03 07:49:09;;;;;;;2.17;1.63;;;;;;;29.96;30.75;99393.59;5040721;28;20029;-75
2021/07/03 07:51:34;;;;;;;5.07;1.80;;;;;;;30.50;28.96;99396.50;5033721;28;20037;-75
2021/07/03 07:54:00;;;;;;;4.35;1.63;;;;;;;29.87;30.08;99396.19;5039981;28;20241;-78
2021/07/03 07:56:25;;;;;;;2.55;1.58;;;;;;;30.02;30.76;99392.41;5038633;28;20037;-78
2021/07/03 07:58:50;;;;;;;4.38;1.38;;;;;;;30.49;29.36;99381.22;5040533;28;20025;-78
2021/07/03 08:01:16;;;;;;;4.00;1.75;;;;;;;31.06;29.03;99375.47;5029552;28;20215;-78
2021/07/03 08:03:43;;;;;;;1.33;1.20;;;;;;;30.70;28.63;99378.94;5036133;28;20395;-78
2021/07/03 08:06:09;;;;;;;8.05;1.63;;;;;;;30.43;29.96;99374.22;5032845;28;20025;-78
2021/07/03 08:08:34;;;;;;;3.45;1.60;;;;;;;30.06;29.92;99377.06;5038972;28;20268;-78
2021/07/03 08:11:00;;;;;;;3.40;1.77;;;;;;;30.16;31.06;99382.34;5052313;28;20079;-79
2021/07/03 08:13:25;;;;;;;3.25;1.70;;;;;;;29.94;30.11;99382.16;5040476;28;20033;-78
2021/07/03 08:15:51;;;;;;;3.08;1.58;;;;;;;30.29;31.42;99387.06;5038508;28;20021;-77
2021/07/03 08:18:18;;;;;;;3.33;1.77;;;;;;;30.12;30.01;99384.88;5037084;28;20036;-78
2021/07/03 08:20:43;;;;;;;6.18;1.90;;;;;;;29.90;30.54;99386.59;5040047;28;20033;-75
2021/07/03 08:23:09;;;;;;;3.67;1.50;;;;;;;29.81;31.13;99386.44;5040639;28;20079;-75
2021/07/03 08:25:35;;;;;;;3.58;1.92;;;;;;;29.68;32.01;99384.47;5038437;28;20041;-75
2021/07/03 08:28:00;;;;;;;5.50;2.08;;;;;;;30.37;31.54;99385.56;5041424;28;20025;-75
2021/07/03 08:30:28;;;;;;;4.75;1.60;;;;;;;30.69;30.49;99382.78;5040664;28;20040;-79
2021/07/03 08:32:54;;;;;;;7.95;2.05;;;;;;;31.01;30.61;99372.84;5038881;28;20135;-78
2021/07/03 08:35:20;;;;;;;3.85;1.58;;;;;;;31.44;29.21;99382.34;5036577;28;20065;-80
2021/07/03 08:37:47;;;;;;;5.47;1.63;;;;;;;30.79;29.28;99352.50;5039997;28;20152;-80
2021/07/03 08:40:16;;;;;;;3.88;1.50;;;;;;;30.75;28.91;99384.31;5043089;28;20235;-79
2021/07/03 08:42:42;;;;;;;3.78;1.60;;;;;;;30.90;28.76;99379.63;5042741;28;20097;-78
2021/07/03 08:45:09;;;;;;;1.83;1.30;;;;;;;31.28;29.16;99380.25;5043860;28;20187;-78
2021/07/03 08:47:39;;;;;;;2.63;1.58;;;;;;;31.94;28.13;99381.47;5042230;28;20052;-79
2021/07/03 08:50:05;;;;;;;3.28;1.73;;;;;;;31.87;27.75;99364.66;5042991;28;20027;-78
2021/07/03 08:52:30;;;;;;;4.38;1.50;;;;;;;32.10;27.45;99371.75;5041940;28;20236;-78
2021/07/03 08:55:05;;;;;;;4.07;1.50;;;;;;;31.88;28.08;99380.78;5042895;28;20045;-78
2021/07/03 08:57:33;;;;;;;2.13;1.23;;;;;;;31.83;26.68;99371.88;5045521;28;20055;-80
2021/07/03 08:59:59;;;;;;;4.07;1.30;;;;;;;31.91;27.18;99354.69;5042741;28;20033;-75
2021/07/03 09:02:36;;;;;;;4.82;1.50;;;;;;;31.78;27.43;99363.78;5044207;28;20116;-75
2021/07/03 09:05:02;;;;;;;2.30;1.40;;;;;;;31.64;28.06;99361.09;5041529;28;20046;-75
2021/07/03 09:07:35;;;;;;;2.40;1.50;;;;;;;31.60;27.67;99366.38;5042575;28;20087;-75
2021/07/03 09:10:02;;;;;;;1.92;1.70;;;;;;;31.88;28.88;99374.50;5044002;28;20329;-78
2021/07/03 09:12:33;;;;;;;2.17;1.50;;;;;;;31.53;27.75;99366.00;5043154;28;20087;-78
2021/07/03 09:15:13;;;;;;;3.67;1.58;;;;;;;30.81;29.13;99368.59;5042430;28;20117;-78
2021/07/03 09:17:50;;;;;;;8.02;1.60;;;;;;;30.95;29.36;99360.41;5041780;28;20226;-78
2021/07/03 09:20:28;;;;;;;4.82;1.90;;;;;;;30.64;29.69;99379.34;5042862;28;20171;-78
2021/07/03 09:22:58;;;;;;;9.20;2.03;;;;;;;30.32;30.06;99374.72;5043274;28;20075;-78
2021/07/03 09:25:24;;;;;;;4.85;1.70;;;;;;;30.41;30.28;99354.59;5056225;28;20262;-78
2021/07/03 09:27:49;;;;;;;4.18;1.83;;;;;;;30.70;30.43;99378.13;5054178;28;20033;-78
2021/07/03 09:30:19;;;;;;;8.77;1.60;;;;;;;30.65;29.21;99378.22;5043269;28;20049;-78
2021/07/03 09:32:54;;;;;;;3.17;1.70;;;;;;;29.74;29.91;99372.38;5049954;28;20025;-78
2021/07/03 09:35:20;;;;;;;6.28;1.83;;;;;;;29.82;31.05;99371.69;5050958;28;20043;-79
2021/07/03 09:37:48;;;;;;;4.57;2.05;;;;;;;30.00;31.74;99365.38;5046646;28;20031;-75
2021/07/03 09:40:14;;;;;;;1.98;1.40;;;;;;;29.96;31.32;99361.63;5052383;28;20049;-75
2021/07/03 09:42:41;;;;;;;4.55;2.13;;;;;;;30.28;31.71;99352.66;5051461;28;20033;-75
2021/07/03 09:45:08;;;;;;;5.03;1.70;;;;;;;30.60;31.60;99360.00;5042228;28;20033;-75
2021/07/03 09:47:34;;;;;;;3.25;1.48;;;;;;;30.69;30.25;99360.91;5043272;28;20021;-75
2021/07/03 09:50:14;;;;;;;3.13;1.42;;;;;;;30.80;29.53;99354.13;5041604;28;20117;-78
2021/07/03 09:52:40;;;;;;;4.05;1.52;;;;;;;30.55;29.69;99351.06;5043269;28;20052;-78
2021/07/03 09:55:07;;;;;;;6.32;2.03;;;;;;;30.43;30.90;99352.38;5041993;28;20763;-78
2021/07/03 09:57:38;;;;;;;1.38;1.13;;;;;;;29.68;29.69;99338.09;5042941;28;20100;-77
2021/07/03 10:00:06;;;;;;;2.08;1.60;;;;;;;29.30;30.77;99348.19;5042706;28;20090;-78
2021/07/03 10:02:33;;;;;;;1.65;1.33;;;;;;;29.83;30.81;99346.03;5048579;28;20072;-77
2021/07/03 10:04:58;;;;;;;2.65;1.63;;;;;;;29.93;31.64;99336.84;5043154;28;20041;-78
2021/07/03 10:07:40;;;;;;;5.53;1.42;;;;;;;29.89;31.09;99320.28;5049805;28;20044;-78
2021/07/03 10:10:13;;;;;;;3.53;1.90;;;;;;;30.11;32.70;99314.19;5049941;28;20053;-78
2021/07/03 10:12:43;;;;;;;3.58;1.67;;;;;;;29.99;30.53;99325.53;5051216;28;20025;-78
2021/07/03 10:15:09;;;;;;;3.88;1.85;;;;;;;29.52;30.98;99340.25;5046221;28;20037;-77
2021/07/03 10:17:36;;;;;;;2.60;1.55;;;;;;;29.12;31.65;99325.25;5041146;28;20100;-78
2021/07/03 10:20:07;;;;;;;4.75;1.98;;;;;;;29.19;32.33;99334.69;5042273;28;20037;-75
2021/07/03 10:22:36;;;;;;;5.75;1.95;;;;;;;29.41;30.60;99331.38;5032566;28;20049;-75
2021/07/03 10:25:15;;;;;;;3.08;1.30;;;;;;;29.34;30.50;99330.94;5033223;28;20045;-75
2021/07/03 10:27:51;;;;;;;3.17;1.40;;;;;;;29.21;31.14;99318.84;5043498;28;20040;-75
2021/07/03 10:30:26;;;;;;;4.57;1.98;;;;;;;29.61;32.74;99319.38;5031785;28;20029;-80
2021/07/03 10:33:03;;;;;;;4.75;1.60;;;;;;;29.68;32.74;99314.34;5032496;28;20029;-78
2021/07/03 10:35:49;;;;;;;3.22;1.80;;;;;;;29.29;30.79;99305.66;5042521;28;20061;-78
2021/07/03 10:38:27;;;;;;;5.18;1.88;;;;;;;29.36;32.67;99303.38;5039143;28;20067;-78
2021/07/03 10:40:55;;;;;;;5.50;1.90;;;;;;;29.49;31.31;99308.09;5039971;28;20080;-77
2021/07/03 10:43:22;;;;;;;2.38;1.60;;;;;;;29.67;31.42;99285.44;5042274;28;20025;-77
2021/07/03 10:45:53;;;;;;;3.40;1.58;;;;;;;29.64;30.75;99299.69;5036217;28;20034;-78
2021/07/03 10:48:18;;;;;;;4.63;2.35;;;;;;;29.54;31.54;99297.13;5032989;28;20057;-77
2021/07/03 10:50:44;;;;;;;4.70;1.60;;;;;;;29.47;31.21;99305.69;5042112;28;20080;-77
2021/07/03 10:53:22;;;;;;;2.55;1.70;;;;;;;29.32;30.51;99296.91;5035313;28;20379;-77
2021/07/03 10:55:49;;;;;;;3.47;1.88;;;;;;;29.41;31.94;99295.13;5041808;28;20220;-77
2021/07/03 10:58:14;;;;;;;6.65;1.90;;;;;;;29.34;32.09;99292.75;5039802;28;20026;-77
2021/07/03 11:00:40;;;;;;;3.17;1.30;;;;;;;29.59;32.56;99285.31;5043527;28;20094;-78
2021/07/03 11:03:25;;;;;;;8.27;1.52;;;;;;;29.92;30.60;99295.09;5047779;28;21780;-75
2021/07/03 11:05:51;;;;;;;4.72;2.00;;;;;;;29.98;30.35;99293.09;5048652;28;20045;-75
2021/07/03 11:08:20;;;;;;;4.03;1.88;;;;;;;29.85;31.80;99287.31;5044744;28;20063;-74
2021/07/03 11:10:46;;;;;;;2.13;1.58;;;;;;;29.91;31.07;99285.28;5038071;28;20278;-75
2021/07/03 11:13:23;;;;;;;8.40;2.08;;;;;;;29.70;32.36;99263.00;5041499;28;20108;-78
2021/07/03 11:15:49;;;;;;;5.30;1.60;;;;;;;29.76;31.29;99277.38;5050051;28;20033;-78
2021/07/03 11:18:14;;;;;;;5.93;1.70;;;;;;;29.89;31.82;99282.06;5049244;28;20033;-78
2021/07/03 11:20:40;;;;;;;4.40;1.40;;;;;;;29.73;32.40;99286.16;5048667;28;20095;-78
2021/07/03 11:23:07;;;;;;;1.95;1.75;;;;;;;29.73;32.38;99286.97;5050545;28;20030;-78
2021/07/03 11:25:38;;;;;;;5.95;2.10;;;;;;;29.88;31.61;99286.69;5052992;28;20065;-78
2021/07/03 11:28:17;;;;;;;3.28;1.98;;;;;;;29.38;32.16;99282.88;5045119;28;20065;-78
2021/07/03 11:30:46;;;;;;;4.53;1.90;;;;;;;29.44;32.29;99273.53;5050379;28;20033;-78